sensor_id;sensor_type;location;lat;lon;timestamp;pressure;altitude;pressure_sealevel;temperature;humidity
11692;BME280;33659;42.672;23.354;2023-02-20T00:00:16;94673.41;;;11.55;53.70
11692;BME280;33659;42.672;23.354;2023-02-20T00:02:44;94687.78;;;11.49;54.16
11692;BME280;33659;42.672;23.354;2023-02-20T00:05:11;94674.16;;;11.56;54.47
11692;BME280;33659;42.672;23.354;2023-02-20T00:07:38;94674.69;;;11.49;54.61
11692;BME280;33659;42.672;23.354;2023-02-20T00:10:07;94678.28;;;11.45;54.87
11692;BME280;33659;42.672;23.354;2023-02-20T00:12:34;94663.25;;;11.42;55.02
11692;BME280;33659;42.672;23.354;2023-02-20T00:15:01;94661.72;;;11.41;55.00
11692;BME280;33659;42.672;23.354;2023-02-20T00:17:29;94693.53;;;11.43;55.43
11692;BME280;33659;42.672;23.354;2023-02-20T00:19:56;94652.44;;;11.43;55.30
11692;BME280;33659;42.672;23.354;2023-02-20T00:22:23;94653.22;;;11.44;55.18
11692;BME280;33659;42.672;23.354;2023-02-20T00:24:50;94639.16;;;11.36;55.60
11692;BME280;33659;42.672;23.354;2023-02-20T00:27:17;94687.31;;;11.35;55.82
11692;BME280;33659;42.672;23.354;2023-02-20T00:29:45;94684.78;;;11.38;55.95
11692;BME280;33659;42.672;23.354;2023-02-20T00:32:12;94657.97;;;11.29;56.10
11692;BME280;33659;42.672;23.354;2023-02-20T00:34:40;94673.56;;;11.38;56.21
11692;BME280;33659;42.672;23.354;2023-02-20T00:37:06;94648.25;;;11.18;56.85
11692;BME280;33659;42.672;23.354;2023-02-20T00:39:34;94666.25;;;11.31;56.90
11692;BME280;33659;42.672;23.354;2023-02-20T00:42:00;94673.25;;;11.27;56.68
11692;BME280;33659;42.672;23.354;2023-02-20T00:44:27;94680.75;;;11.29;57.00
11692;BME280;33659;42.672;23.354;2023-02-20T00:46:54;94656.91;;;11.30;56.90
11692;BME280;33659;42.672;23.354;2023-02-20T00:49:21;94657.44;;;11.36;56.93
11692;BME280;33659;42.672;23.354;2023-02-20T00:51:49;94683.94;;;11.34;56.74
11692;BME280;33659;42.672;23.354;2023-02-20T00:54:15;94667.56;;;11.25;57.21
11692;BME280;33659;42.672;23.354;2023-02-20T00:56:42;94672.34;;;11.23;57.38
11692;BME280;33659;42.672;23.354;2023-02-20T00:59:09;94677.56;;;11.23;57.13
11692;BME280;33659;42.672;23.354;2023-02-20T01:01:35;94686.19;;;11.24;57.04
11692;BME280;33659;42.672;23.354;2023-02-20T01:04:02;94694.75;;;11.12;57.49
11692;BME280;33659;42.672;23.354;2023-02-20T01:06:29;94691.88;;;11.05;58.01
11692;BME280;33659;42.672;23.354;2023-02-20T01:08:57;94698.63;;;11.06;58.01
11692;BME280;33659;42.672;23.354;2023-02-20T01:11:24;94685.53;;;10.94;58.23
11692;BME280;33659;42.672;23.354;2023-02-20T01:13:51;94694.06;;;11.03;58.13
11692;BME280;33659;42.672;23.354;2023-02-20T01:16:17;94697.31;;;11.00;58.34
11692;BME280;33659;42.672;23.354;2023-02-20T01:18:48;94697.78;;;11.02;58.23
11692;BME280;33659;42.672;23.354;2023-02-20T01:21:14;94724.66;;;11.02;58.63
11692;BME280;33659;42.672;23.354;2023-02-20T01:23:41;94699.63;;;11.01;58.34
11692;BME280;33659;42.672;23.354;2023-02-20T01:26:09;94706.91;;;10.96;58.72
11692;BME280;33659;42.672;23.354;2023-02-20T01:28:36;94722.69;;;10.99;58.81
11692;BME280;33659;42.672;23.354;2023-02-20T01:31:02;94723.91;;;11.02;58.86
11692;BME280;33659;42.672;23.354;2023-02-20T01:33:29;94708.22;;;11.02;58.65
11692;BME280;33659;42.672;23.354;2023-02-20T01:35:56;94723.91;;;11.02;58.55
11692;BME280;33659;42.672;23.354;2023-02-20T01:38:22;94709.00;;;11.02;58.52
11692;BME280;33659;42.672;23.354;2023-02-20T01:40:49;94729.75;;;10.99;58.82
11692;BME280;33659;42.672;23.354;2023-02-20T01:43:17;94707.19;;;10.94;58.97
11692;BME280;33659;42.672;23.354;2023-02-20T01:45:44;94708.59;;;10.92;59.58
11692;BME280;33659;42.672;23.354;2023-02-20T01:48:18;94724.03;;;10.84;60.29
11692;BME280;33659;42.672;23.354;2023-02-20T01:50:45;94754.81;;;10.79;60.10
11692;BME280;33659;42.672;23.354;2023-02-20T01:53:14;94737.94;;;10.76;60.59
11692;BME280;33659;42.672;23.354;2023-02-20T01:55:44;94704.66;;;10.65;61.05
11692;BME280;33659;42.672;23.354;2023-02-20T01:58:15;94716.06;;;10.60;61.51
11692;BME280;33659;42.672;23.354;2023-02-20T02:00:44;94705.19;;;10.58;61.41
11692;BME280;33659;42.672;23.354;2023-02-20T02:03:13;94715.63;;;10.58;61.49
11692;BME280;33659;42.672;23.354;2023-02-20T02:05:43;94750.09;;;10.43;62.38
11692;BME280;33659;42.672;23.354;2023-02-20T02:08:13;94791.34;;;10.28;62.71
11692;BME280;33659;42.672;23.354;2023-02-20T02:10:47;94713.78;;;10.29;62.84
11692;BME280;33659;42.672;23.354;2023-02-20T02:13:15;94730.72;;;10.23;62.68
11692;BME280;33659;42.672;23.354;2023-02-20T02:15:43;94720.75;;;10.16;62.63
11692;BME280;33659;42.672;23.354;2023-02-20T02:18:31;94747.31;;;10.18;63.06
11692;BME280;33659;42.672;23.354;2023-02-20T02:21:22;94764.38;;;10.07;62.54
11692;BME280;33659;42.672;23.354;2023-02-20T02:27:30;94744.81;;;9.92;62.83
11692;BME280;33659;42.672;23.354;2023-02-20T02:30:33;94768.41;;;9.96;62.18
11692;BME280;33659;42.672;23.354;2023-02-20T02:33:25;94739.00;;;9.87;62.11
11692;BME280;33659;42.672;23.354;2023-02-20T02:36:17;94761.84;;;9.90;62.09
11692;BME280;33659;42.672;23.354;2023-02-20T02:38:51;94762.00;;;9.85;62.06
11692;BME280;33659;42.672;23.354;2023-02-20T02:41:28;94735.63;;;9.77;62.00
11692;BME280;33659;42.672;23.354;2023-02-20T02:44:00;94756.97;;;9.80;61.76
11692;BME280;33659;42.672;23.354;2023-02-20T02:46:39;94766.97;;;9.69;61.99
11692;BME280;33659;42.672;23.354;2023-02-20T02:49:13;94767.88;;;9.73;61.71
11692;BME280;33659;42.672;23.354;2023-02-20T02:51:45;94758.22;;;9.73;62.08
11692;BME280;33659;42.672;23.354;2023-02-20T02:54:14;94772.50;;;9.67;62.00
11692;BME280;33659;42.672;23.354;2023-02-20T02:56:43;94762.06;;;9.67;62.21
11692;BME280;33659;42.672;23.354;2023-02-20T02:59:12;94738.94;;;9.57;62.41
11692;BME280;33659;42.672;23.354;2023-02-20T03:01:43;94800.25;;;9.63;62.14
11692;BME280;33659;42.672;23.354;2023-02-20T03:04:12;94757.19;;;9.57;62.50
11692;BME280;33659;42.672;23.354;2023-02-20T03:06:51;94765.75;;;9.58;62.71
11692;BME280;33659;42.672;23.354;2023-02-20T03:09:24;94760.38;;;9.63;62.27
11692;BME280;33659;42.672;23.354;2023-02-20T03:11:53;94775.22;;;9.80;62.44
11692;BME280;33659;42.672;23.354;2023-02-20T03:14:24;94791.16;;;9.87;62.28
11692;BME280;33659;42.672;23.354;2023-02-20T03:17:14;94788.09;;;9.85;62.18
11692;BME280;33659;42.672;23.354;2023-02-20T03:19:46;94795.19;;;9.75;61.88
11692;BME280;33659;42.672;23.354;2023-02-20T03:22:18;94773.41;;;9.71;62.00
11692;BME280;33659;42.672;23.354;2023-02-20T03:24:50;94792.59;;;9.58;62.57
11692;BME280;33659;42.672;23.354;2023-02-20T03:27:26;94798.41;;;9.64;62.34
11692;BME280;33659;42.672;23.354;2023-02-20T03:29:57;94793.69;;;9.57;62.53
11692;BME280;33659;42.672;23.354;2023-02-20T03:32:26;94809.19;;;9.45;63.01
11692;BME280;33659;42.672;23.354;2023-02-20T03:35:15;94855.34;;;9.44;62.56
11692;BME280;33659;42.672;23.354;2023-02-20T03:38:03;94822.06;;;9.41;62.80
11692;BME280;33659;42.672;23.354;2023-02-20T03:40:51;94813.66;;;9.36;62.44
11692;BME280;33659;42.672;23.354;2023-02-20T03:43:35;94821.59;;;9.39;62.52
11692;BME280;33659;42.672;23.354;2023-02-20T03:46:07;94825.28;;;9.47;62.19
11692;BME280;33659;42.672;23.354;2023-02-20T03:48:41;94821.59;;;9.48;62.02
11692;BME280;33659;42.672;23.354;2023-02-20T03:51:09;94809.47;;;9.52;62.18
11692;BME280;33659;42.672;23.354;2023-02-20T03:53:38;94807.19;;;9.50;61.72
11692;BME280;33659;42.672;23.354;2023-02-20T03:56:09;94815.03;;;9.42;61.74
11692;BME280;33659;42.672;23.354;2023-02-20T03:58:39;94821.31;;;9.41;62.24
11692;BME280;33659;42.672;23.354;2023-02-20T04:01:09;94844.78;;;9.41;61.64
11692;BME280;33659;42.672;23.354;2023-02-20T04:03:39;94839.69;;;9.44;61.71
11692;BME280;33659;42.672;23.354;2023-02-20T04:06:08;94812.41;;;9.42;61.54
11692;BME280;33659;42.672;23.354;2023-02-20T04:08:38;94832.34;;;9.38;61.40
11692;BME280;33659;42.672;23.354;2023-02-20T04:11:10;94845.06;;;9.39;61.23
11692;BME280;33659;42.672;23.354;2023-02-20T04:13:39;94865.63;;;9.41;61.12
11692;BME280;33659;42.672;23.354;2023-02-20T04:16:08;94831.56;;;9.37;61.00
11692;BME280;33659;42.672;23.354;2023-02-20T04:18:35;94845.06;;;9.39;61.13
11692;BME280;33659;42.672;23.354;2023-02-20T04:21:05;94816.09;;;9.41;60.88
11692;BME280;33659;42.672;23.354;2023-02-20T04:23:37;94858.56;;;9.41;61.13
11692;BME280;33659;42.672;23.354;2023-02-20T04:26:10;94830.66;;;9.33;60.98
11692;BME280;33659;42.672;23.354;2023-02-20T04:28:38;94808.91;;;9.29;61.55
11692;BME280;33659;42.672;23.354;2023-02-20T04:31:04;94809.22;;;9.28;61.30
11692;BME280;33659;42.672;23.354;2023-02-20T04:33:32;94840.31;;;9.24;61.77
11692;BME280;33659;42.672;23.354;2023-02-20T04:35:58;94854.41;;;9.23;61.91
11692;BME280;33659;42.672;23.354;2023-02-20T04:38:25;94805.81;;;9.18;62.12
11692;BME280;33659;42.672;23.354;2023-02-20T04:40:52;94816.72;;;9.03;62.98
11692;BME280;33659;42.672;23.354;2023-02-20T04:43:20;94814.56;;;9.05;62.72
11692;BME280;33659;42.672;23.354;2023-02-20T04:45:46;94822.66;;;8.95;63.39
11692;BME280;33659;42.672;23.354;2023-02-20T04:48:13;94757.22;;;8.88;62.92
11692;BME280;33659;42.672;23.354;2023-02-20T04:50:40;94832.00;;;8.79;62.67
11692;BME280;33659;42.672;23.354;2023-02-20T04:53:06;94831.06;;;8.75;63.21
11692;BME280;33659;42.672;23.354;2023-02-20T04:55:33;94842.09;;;8.80;62.21
11692;BME280;33659;42.672;23.354;2023-02-20T04:58:00;94834.28;;;8.80;62.16
11692;BME280;33659;42.672;23.354;2023-02-20T05:00:28;94828.00;;;8.73;61.62
11692;BME280;33659;42.672;23.354;2023-02-20T05:02:57;94868.31;;;8.84;60.84
11692;BME280;33659;42.672;23.354;2023-02-20T05:05:25;94928.00;;;8.72;60.50
11692;BME280;33659;42.672;23.354;2023-02-20T05:07:53;94924.47;;;8.67;60.16
11692;BME280;33659;42.672;23.354;2023-02-20T05:10:21;94881.28;;;8.66;59.67
11692;BME280;33659;42.672;23.354;2023-02-20T05:12:48;94874.69;;;8.69;59.38
11692;BME280;33659;42.672;23.354;2023-02-20T05:15:15;94872.38;;;8.67;59.21
11692;BME280;33659;42.672;23.354;2023-02-20T05:17:43;94819.56;;;8.67;58.30
11692;BME280;33659;42.672;23.354;2023-02-20T05:20:11;94900.06;;;8.55;58.57
11692;BME280;33659;42.672;23.354;2023-02-20T05:22:38;94868.25;;;8.58;58.59
11692;BME280;33659;42.672;23.354;2023-02-20T05:25:05;94903.59;;;8.50;58.46
11692;BME280;33659;42.672;23.354;2023-02-20T05:27:31;94884.44;;;8.55;58.19
11692;BME280;33659;42.672;23.354;2023-02-20T05:29:59;94894.84;;;8.55;58.43
11692;BME280;33659;42.672;23.354;2023-02-20T05:32:27;94890.41;;;8.55;58.27
11692;BME280;33659;42.672;23.354;2023-02-20T05:34:56;94877.72;;;8.62;58.32
11692;BME280;33659;42.672;23.354;2023-02-20T05:37:24;94921.41;;;8.65;58.53
11692;BME280;33659;42.672;23.354;2023-02-20T05:39:52;94929.53;;;8.73;58.12
11692;BME280;33659;42.672;23.354;2023-02-20T05:42:18;94894.03;;;8.77;58.39
11692;BME280;33659;42.672;23.354;2023-02-20T05:44:45;94884.34;;;8.68;58.67
11692;BME280;33659;42.672;23.354;2023-02-20T05:47:14;94895.06;;;8.76;58.61
11692;BME280;33659;42.672;23.354;2023-02-20T05:49:40;94897.53;;;8.81;58.52
11692;BME280;33659;42.672;23.354;2023-02-20T05:52:11;94925.91;;;8.82;58.81
11692;BME280;33659;42.672;23.354;2023-02-20T05:54:38;94902.31;;;8.87;58.92
11692;BME280;33659;42.672;23.354;2023-02-20T05:57:05;94916.09;;;8.88;59.20
11692;BME280;33659;42.672;23.354;2023-02-20T05:59:32;94900.47;;;8.88;59.38
11692;BME280;33659;42.672;23.354;2023-02-20T06:01:59;94902.63;;;8.86;59.36
11692;BME280;33659;42.672;23.354;2023-02-20T06:04:27;94934.00;;;8.81;59.40
11692;BME280;33659;42.672;23.354;2023-02-20T06:06:54;94915.81;;;8.89;59.42
11692;BME280;33659;42.672;23.354;2023-02-20T06:09:22;94921.16;;;8.84;59.07
11692;BME280;33659;42.672;23.354;2023-02-20T06:11:50;94961.28;;;8.83;58.94
11692;BME280;33659;42.672;23.354;2023-02-20T06:14:19;94905.84;;;8.91;57.46
11692;BME280;33659;42.672;23.354;2023-02-20T06:16:46;94913.22;;;8.89;56.87
11692;BME280;33659;42.672;23.354;2023-02-20T06:19:17;94940.47;;;8.92;55.20
11692;BME280;33659;42.672;23.354;2023-02-20T06:21:47;94918.63;;;9.10;54.93
11692;BME280;33659;42.672;23.354;2023-02-20T06:24:14;94909.41;;;9.13;55.26
11692;BME280;33659;42.672;23.354;2023-02-20T06:26:43;94867.75;;;9.21;54.91
11692;BME280;33659;42.672;23.354;2023-02-20T06:29:11;94933.22;;;9.29;54.86
11692;BME280;33659;42.672;23.354;2023-02-20T06:31:38;94946.53;;;9.27;55.20
11692;BME280;33659;42.672;23.354;2023-02-20T06:34:05;94912.50;;;9.23;54.22
11692;BME280;33659;42.672;23.354;2023-02-20T06:36:34;94931.06;;;9.31;54.96
11692;BME280;33659;42.672;23.354;2023-02-20T06:39:02;94924.00;;;9.40;54.79
11692;BME280;33659;42.672;23.354;2023-02-20T06:41:28;94935.53;;;9.47;54.54
11692;BME280;33659;42.672;23.354;2023-02-20T06:43:56;94953.16;;;9.42;54.52
11692;BME280;33659;42.672;23.354;2023-02-20T06:46:23;94937.22;;;9.52;54.75
11692;BME280;33659;42.672;23.354;2023-02-20T06:48:52;94924.81;;;9.58;53.15
11692;BME280;33659;42.672;23.354;2023-02-20T06:51:21;94953.50;;;9.66;52.91
11692;BME280;33659;42.672;23.354;2023-02-20T06:53:47;94945.03;;;9.52;51.38
11692;BME280;33659;42.672;23.354;2023-02-20T06:56:17;94935.53;;;9.39;53.24
11692;BME280;33659;42.672;23.354;2023-02-20T06:58:45;94999.91;;;9.30;53.76
11692;BME280;33659;42.672;23.354;2023-02-20T07:01:13;94935.31;;;9.09;53.85
11692;BME280;33659;42.672;23.354;2023-02-20T07:03:40;94974.97;;;8.98;54.12
11692;BME280;33659;42.672;23.354;2023-02-20T07:06:06;94936.81;;;8.93;54.20
11692;BME280;33659;42.672;23.354;2023-02-20T07:08:33;94951.53;;;9.06;54.24
11692;BME280;33659;42.672;23.354;2023-02-20T07:11:00;94962.63;;;9.20;53.58
11692;BME280;33659;42.672;23.354;2023-02-20T07:13:26;94944.41;;;9.29;52.32
11692;BME280;33659;42.672;23.354;2023-02-20T07:15:53;94964.16;;;9.21;52.63
11692;BME280;33659;42.672;23.354;2023-02-20T07:18:21;95011.97;;;9.17;51.83
11692;BME280;33659;42.672;23.354;2023-02-20T07:20:49;94995.69;;;9.11;51.77
11692;BME280;33659;42.672;23.354;2023-02-20T07:23:16;94974.44;;;9.27;51.09
11692;BME280;33659;42.672;23.354;2023-02-20T07:25:43;94968.19;;;9.28;50.90
11692;BME280;33659;42.672;23.354;2023-02-20T07:28:09;94968.19;;;9.28;50.51
11692;BME280;33659;42.672;23.354;2023-02-20T07:30:36;94933.34;;;9.15;50.33
11692;BME280;33659;42.672;23.354;2023-02-20T07:33:03;94978.53;;;9.02;49.97
11692;BME280;33659;42.672;23.354;2023-02-20T07:35:31;94896.25;;;9.09;49.67
11692;BME280;33659;42.672;23.354;2023-02-20T07:37:57;94977.00;;;9.09;49.54
11692;BME280;33659;42.672;23.354;2023-02-20T07:40:24;94958.63;;;9.14;49.51
11692;BME280;33659;42.672;23.354;2023-02-20T07:42:51;94993.88;;;9.20;49.00
11692;BME280;33659;42.672;23.354;2023-02-20T07:45:18;95015.97;;;9.23;49.23
11692;BME280;33659;42.672;23.354;2023-02-20T07:47:45;94954.78;;;9.20;48.74
11692;BME280;33659;42.672;23.354;2023-02-20T07:50:13;95031.88;;;9.13;48.34
11692;BME280;33659;42.672;23.354;2023-02-20T07:52:41;94996.31;;;9.08;48.18
11692;BME280;33659;42.672;23.354;2023-02-20T07:55:11;95024.91;;;8.91;48.44
11692;BME280;33659;42.672;23.354;2023-02-20T07:57:38;95015.94;;;9.14;48.43
11692;BME280;33659;42.672;23.354;2023-02-20T08:00:06;94986.84;;;9.21;48.79
11692;BME280;33659;42.672;23.354;2023-02-20T08:02:33;95016.63;;;9.29;48.89
11692;BME280;33659;42.672;23.354;2023-02-20T08:04:59;95007.59;;;9.35;48.67
11692;BME280;33659;42.672;23.354;2023-02-20T08:07:26;94982.44;;;9.30;48.05
11692;BME280;33659;42.672;23.354;2023-02-20T08:09:54;95000.38;;;9.32;48.54
11692;BME280;33659;42.672;23.354;2023-02-20T08:12:20;95003.91;;;9.36;48.37
11692;BME280;33659;42.672;23.354;2023-02-20T08:14:48;95035.06;;;9.49;47.84
11692;BME280;33659;42.672;23.354;2023-02-20T08:17:15;95046.09;;;9.46;47.94
11692;BME280;33659;42.672;23.354;2023-02-20T08:19:42;95007.47;;;9.57;47.45
11692;BME280;33659;42.672;23.354;2023-02-20T08:22:09;95061.00;;;9.63;46.92
11692;BME280;33659;42.672;23.354;2023-02-20T08:24:36;95003.34;;;9.65;46.74
11692;BME280;33659;42.672;23.354;2023-02-20T08:27:04;94994.91;;;9.68;47.13
11692;BME280;33659;42.672;23.354;2023-02-20T08:29:31;95021.25;;;9.49;47.05
11692;BME280;33659;42.672;23.354;2023-02-20T08:31:58;95019.41;;;9.41;47.47
11692;BME280;33659;42.672;23.354;2023-02-20T08:34:24;95005.31;;;9.50;47.05
11692;BME280;33659;42.672;23.354;2023-02-20T08:36:51;95011.59;;;9.58;46.69
11692;BME280;33659;42.672;23.354;2023-02-20T08:39:18;94972.31;;;9.46;47.36
11692;BME280;33659;42.672;23.354;2023-02-20T08:41:46;95030.75;;;9.45;47.13
11692;BME280;33659;42.672;23.354;2023-02-20T08:44:14;95030.34;;;9.60;47.41
11692;BME280;33659;42.672;23.354;2023-02-20T08:46:45;94987.06;;;9.50;47.05
11692;BME280;33659;42.672;23.354;2023-02-20T08:49:12;94941.34;;;9.53;46.94
11692;BME280;33659;42.672;23.354;2023-02-20T08:51:39;95003.16;;;9.44;47.56
11692;BME280;33659;42.672;23.354;2023-02-20T08:54:05;95044.28;;;9.56;47.67
11692;BME280;33659;42.672;23.354;2023-02-20T08:56:32;94989.38;;;9.69;46.89
11692;BME280;33659;42.672;23.354;2023-02-20T08:58:59;95009.03;;;9.67;46.45
11692;BME280;33659;42.672;23.354;2023-02-20T09:01:27;95035.28;;;9.79;46.45
11692;BME280;33659;42.672;23.354;2023-02-20T09:03:53;94980.97;;;9.81;45.98
11692;BME280;33659;42.672;23.354;2023-02-20T09:06:20;94972.97;;;9.77;46.25
11692;BME280;33659;42.672;23.354;2023-02-20T09:08:49;95010.44;;;9.99;45.84
11692;BME280;33659;42.672;23.354;2023-02-20T09:11:15;95005.69;;;10.01;45.28
11692;BME280;33659;42.672;23.354;2023-02-20T09:13:43;95009.81;;;10.02;45.01
11692;BME280;33659;42.672;23.354;2023-02-20T09:16:10;94988.03;;;10.07;44.35
11692;BME280;33659;42.672;23.354;2023-02-20T09:18:38;94961.47;;;10.04;44.66
11692;BME280;33659;42.672;23.354;2023-02-20T09:21:07;95030.09;;;10.05;44.33
11692;BME280;33659;42.672;23.354;2023-02-20T09:23:34;94990.91;;;10.22;44.42
11692;BME280;33659;42.672;23.354;2023-02-20T09:26:01;94968.22;;;10.14;43.94
11692;BME280;33659;42.672;23.354;2023-02-20T09:28:27;94995.09;;;10.23;44.06
11692;BME280;33659;42.672;23.354;2023-02-20T09:30:54;94978.66;;;10.32;44.11
11692;BME280;33659;42.672;23.354;2023-02-20T09:33:21;94997.38;;;10.42;44.37
11692;BME280;33659;42.672;23.354;2023-02-20T09:35:49;94970.66;;;10.37;44.23
11692;BME280;33659;42.672;23.354;2023-02-20T09:38:19;94953.94;;;10.38;44.51
11692;BME280;33659;42.672;23.354;2023-02-20T09:40:48;95006.44;;;10.45;44.47
11692;BME280;33659;42.672;23.354;2023-02-20T09:43:25;95011.03;;;10.56;44.05
11692;BME280;33659;42.672;23.354;2023-02-20T09:45:59;95037.63;;;10.50;44.51
11692;BME280;33659;42.672;23.354;2023-02-20T09:48:42;94934.22;;;10.57;44.90
11692;BME280;33659;42.672;23.354;2023-02-20T09:51:16;94951.75;;;10.57;44.83
11692;BME280;33659;42.672;23.354;2023-02-20T09:53:51;94959.50;;;10.74;44.52
11692;BME280;33659;42.672;23.354;2023-02-20T09:56:24;95006.63;;;10.87;44.14
11692;BME280;33659;42.672;23.354;2023-02-20T09:58:55;95020.91;;;10.98;43.60
11692;BME280;33659;42.672;23.354;2023-02-20T10:01:25;94964.69;;;11.21;42.89
11692;BME280;33659;42.672;23.354;2023-02-20T10:03:55;95013.38;;;11.34;42.73
11692;BME280;33659;42.672;23.354;2023-02-20T10:06:26;94987.88;;;11.52;41.81
11692;BME280;33659;42.672;23.354;2023-02-20T10:08:54;94992.91;;;11.36;41.36
11692;BME280;33659;42.672;23.354;2023-02-20T10:11:34;95013.28;;;11.22;41.25
11692;BME280;33659;42.672;23.354;2023-02-20T10:14:18;94945.75;;;11.24;41.18
11692;BME280;33659;42.672;23.354;2023-02-20T10:16:50;94936.13;;;11.37;40.83
11692;BME280;33659;42.672;23.354;2023-02-20T10:19:26;94960.19;;;11.51;40.15
11692;BME280;33659;42.672;23.354;2023-02-20T10:22:02;94988.53;;;11.49;40.43
11692;BME280;33659;42.672;23.354;2023-02-20T10:24:43;94998.50;;;11.56;39.69
11692;BME280;33659;42.672;23.354;2023-02-20T10:27:21;94981.38;;;11.58;39.58
11692;BME280;33659;42.672;23.354;2023-02-20T10:29:51;94998.38;;;11.73;38.81
11692;BME280;33659;42.672;23.354;2023-02-20T10:32:20;94969.28;;;11.75;38.15
11692;BME280;33659;42.672;23.354;2023-02-20T10:34:54;94912.88;;;11.44;38.27
11692;BME280;33659;42.672;23.354;2023-02-20T10:37:26;94930.72;;;11.63;38.37
11692;BME280;33659;42.672;23.354;2023-02-20T10:39:58;94969.69;;;11.85;38.25
11692;BME280;33659;42.672;23.354;2023-02-20T10:42:30;94983.22;;;11.87;38.69
11692;BME280;33659;42.672;23.354;2023-02-20T10:45:02;94953.84;;;12.03;38.08
11692;BME280;33659;42.672;23.354;2023-02-20T10:47:36;95023.22;;;12.30;38.07
11692;BME280;33659;42.672;23.354;2023-02-20T10:50:08;95002.28;;;12.30;38.21
11692;BME280;33659;42.672;23.354;2023-02-20T10:52:42;94967.06;;;12.39;38.14
11692;BME280;33659;42.672;23.354;2023-02-20T10:55:17;94989.91;;;12.51;37.46
11692;BME280;33659;42.672;23.354;2023-02-20T10:57:48;94935.22;;;12.37;36.59
11692;BME280;33659;42.672;23.354;2023-02-20T11:00:20;94917.50;;;12.34;36.96
11692;BME280;33659;42.672;23.354;2023-02-20T11:02:55;94911.56;;;12.58;36.51
11692;BME280;33659;42.672;23.354;2023-02-20T11:05:25;94905.66;;;12.73;36.26
11692;BME280;33659;42.672;23.354;2023-02-20T11:07:55;94973.72;;;12.82;36.37
11692;BME280;33659;42.672;23.354;2023-02-20T11:10:22;94921.94;;;13.04;36.15
11692;BME280;33659;42.672;23.354;2023-02-20T11:12:49;94901.19;;;13.23;35.21
11692;BME280;33659;42.672;23.354;2023-02-20T11:15:19;94963.59;;;13.42;35.80
11692;BME280;33659;42.672;23.354;2023-02-20T11:17:49;94896.78;;;13.39;35.91
11692;BME280;33659;42.672;23.354;2023-02-20T11:20:40;94892.25;;;13.24;36.55
11692;BME280;33659;42.672;23.354;2023-02-20T11:23:08;94895.81;;;13.19;36.87
11692;BME280;33659;42.672;23.354;2023-02-20T11:25:36;94950.78;;;13.16;36.42
11692;BME280;33659;42.672;23.354;2023-02-20T11:28:10;94918.66;;;13.31;36.70
11692;BME280;33659;42.672;23.354;2023-02-20T11:30:43;94932.38;;;13.65;36.05
11692;BME280;33659;42.672;23.354;2023-02-20T11:33:13;94920.25;;;13.72;35.54
11692;BME280;33659;42.672;23.354;2023-02-20T11:35:41;94910.34;;;13.53;35.82
11692;BME280;33659;42.672;23.354;2023-02-20T11:38:29;94905.31;;;13.48;36.09
11692;BME280;33659;42.672;23.354;2023-02-20T11:41:05;94940.31;;;13.40;36.19
11692;BME280;33659;42.672;23.354;2023-02-20T11:43:34;94946.59;;;13.64;35.93
11692;BME280;33659;42.672;23.354;2023-02-20T11:46:17;94908.19;;;13.71;36.14
11692;BME280;33659;42.672;23.354;2023-02-20T11:49:00;94942.13;;;14.04;35.54
11692;BME280;33659;42.672;23.354;2023-02-20T11:51:35;94917.72;;;14.04;35.46
11692;BME280;33659;42.672;23.354;2023-02-20T11:54:14;94969.06;;;13.89;35.43
11692;BME280;33659;42.672;23.354;2023-02-20T11:56:59;94843.81;;;13.90;35.77
11692;BME280;33659;42.672;23.354;2023-02-20T11:59:31;94907.41;;;14.11;35.40
11692;BME280;33659;42.672;23.354;2023-02-20T12:02:25;94948.56;;;14.23;34.97
11692;BME280;33659;42.672;23.354;2023-02-20T12:05:10;94878.41;;;14.07;35.22
11692;BME280;33659;42.672;23.354;2023-02-20T12:07:42;94872.16;;;14.12;35.10
11692;BME280;33659;42.672;23.354;2023-02-20T12:10:24;94910.13;;;13.87;35.33
11692;BME280;33659;42.672;23.354;2023-02-20T12:12:53;94933.41;;;13.88;35.17
11692;BME280;33659;42.672;23.354;2023-02-20T12:15:22;94918.31;;;14.13;34.75
11692;BME280;33659;42.672;23.354;2023-02-20T12:18:13;94859.78;;;14.13;34.49
11692;BME280;33659;42.672;23.354;2023-02-20T12:20:47;94885.00;;;14.01;34.63
11692;BME280;33659;42.672;23.354;2023-02-20T12:23:22;94879.22;;;13.96;34.81
11692;BME280;33659;42.672;23.354;2023-02-20T12:26:05;94942.03;;;14.17;34.48
11692;BME280;33659;42.672;23.354;2023-02-20T12:28:41;94896.03;;;14.23;34.52
11692;BME280;33659;42.672;23.354;2023-02-20T12:31:20;94898.19;;;14.17;34.59
11692;BME280;33659;42.672;23.354;2023-02-20T12:33:58;94921.75;;;14.01;34.73
11692;BME280;33659;42.672;23.354;2023-02-20T12:36:32;94892.75;;;14.26;34.59
11692;BME280;33659;42.672;23.354;2023-02-20T12:39:05;94901.94;;;14.48;34.52
11692;BME280;33659;42.672;23.354;2023-02-20T12:41:46;94835.41;;;14.59;34.17
11692;BME280;33659;42.672;23.354;2023-02-20T12:44:25;94946.97;;;14.46;34.32
11692;BME280;33659;42.672;23.354;2023-02-20T12:46:59;94914.38;;;14.35;34.46
11692;BME280;33659;42.672;23.354;2023-02-20T12:49:53;94902.63;;;14.45;34.11
11692;BME280;33659;42.672;23.354;2023-02-20T12:52:45;94902.56;;;14.73;33.96
11692;BME280;33659;42.672;23.354;2023-02-20T12:55:21;94910.78;;;15.03;33.84
11692;BME280;33659;42.672;23.354;2023-02-20T12:58:02;94879.13;;;14.99;33.48
11692;BME280;33659;42.672;23.354;2023-02-20T13:00:38;94901.69;;;15.00;33.33
11692;BME280;33659;42.672;23.354;2023-02-20T13:03:10;94897.81;;;14.94;33.42
11692;BME280;33659;42.672;23.354;2023-02-20T13:05:42;94895.44;;;15.24;33.19
11692;BME280;33659;42.672;23.354;2023-02-20T13:08:12;94943.50;;;15.56;32.42
11692;BME280;33659;42.672;23.354;2023-02-20T13:10:47;94920.91;;;15.71;32.13
11692;BME280;33659;42.672;23.354;2023-02-20T13:13:17;94883.97;;;15.87;32.16
11692;BME280;33659;42.672;23.354;2023-02-20T13:15:52;94866.38;;;15.72;31.99